Time;durP1;ratioP1;P1;durP2;ratioP2;P2;SDS_P1;SDS_P2;PMS_P1;PMS_P2;Temp;Humidity;BMP_temperature;BMP_pressure;BME280_temperature;BME280_humidity;BME280_pressure;Samples;Min_cycle;Max_cycle;Signal;HPM_P1;HPM_P2
2022/08/10 00:01:43;;;;;;;11.80;8.48;;;;;;;;;;5095132;28;20051;-60
2022/08/10 00:04:10;;;;;;;10.63;7.93;;;;;;;;;;5096861;28;20051;-61
2022/08/10 00:06:39;;;;;;;9.93;8.25;;;;;;;;;;5098708;28;20055;-61
2022/08/10 00:09:06;;;;;;;14.10;9.50;;;;;;;;;;5094535;28;20044;-61
2022/08/10 00:11:33;;;;;;;10.15;7.93;;;;;;;;;;5093700;28;20039;-61
2022/08/10 00:14:00;;;;;;;8.88;7.32;;;;;;;;;;5076651;28;20073;-61
2022/08/10 00:16:27;;;;;;;9.68;8.48;;;;;;;;;;5098185;28;20058;-61
2022/08/10 00:18:55;;;;;;;12.30;8.43;;;;;;;;;;5095499;28;20056;-61
2022/08/10 00:21:22;;;;;;;10.73;8.60;;;;;;;;;;5098620;28;20146;-61
2022/08/10 00:23:50;;;;;;;9.32;7.90;;;;;;;;;;5097105;28;20054;-60
2022/08/10 00:26:17;;;;;;;8.90;6.63;;;;;;;;;;5095885;28;20048;-61
2022/08/10 00:28:45;;;;;;;9.68;7.20;;;;;;;;;;5073877;28;20051;-60
2022/08/10 00:31:12;;;;;;;13.10;8.23;;;;;;;;;;5097234;28;20050;-60
2022/08/10 00:33:39;;;;;;;8.02;7.20;;;;;;;;;;5091093;28;20047;-60
2022/08/10 00:36:07;;;;;;;9.98;7.70;;;;;;;;;;5090796;28;20052;-60
2022/08/10 00:38:35;;;;;;;12.02;6.97;;;;;;;;;;5091476;28;20048;-61
2022/08/10 00:41:04;;;;;;;12.10;7.45;;;;;;;;;;5092795;28;20176;-61
2022/08/10 00:43:31;;;;;;;9.70;6.47;;;;;;;;;;5091485;28;20060;-61
2022/08/10 00:45:59;;;;;;;7.25;6.05;;;;;;;;;;5093193;28;20121;-60
2022/08/10 00:48:26;;;;;;;7.18;6.28;;;;;;;;;;5094292;28;20467;-61
2022/08/10 00:50:53;;;;;;;10.98;7.00;;;;;;;;;;5095629;28;20124;-61
2022/08/10 00:53:20;;;;;;;10.55;5.85;;;;;;;;;;5093607;28;20044;-61
2022/08/10 00:55:47;;;;;;;7.35;5.85;;;;;;;;;;5094424;28;20055;-60
2022/08/10 00:58:16;;;;;;;8.13;6.45;;;;;;;;;;5090671;28;20096;-61
2022/08/10 01:00:46;;;;;;;7.32;6.05;;;;;;;;;;5075222;28;20059;-60
2022/08/10 01:03:13;;;;;;;7.32;6.40;;;;;;;;;;5091766;28;20048;-61
2022/08/10 01:05:45;;;;;;;8.65;5.47;;;;;;;;;;5091724;28;20067;-61
2022/08/10 01:08:26;;;;;;;8.43;5.28;;;;;;;;;;5092254;28;20113;-60
2022/08/10 01:10:59;;;;;;;6.88;5.40;;;;;;;;;;5093159;28;20459;-60
2022/08/10 01:13:33;;;;;;;8.68;6.05;;;;;;;;;;5094969;28;20056;-61
2022/08/10 01:16:05;;;;;;;7.45;5.40;;;;;;;;;;5087148;28;20052;-60
2022/08/10 01:18:38;;;;;;;6.43;4.85;;;;;;;;;;5089747;28;20080;-61
2022/08/10 01:21:16;;;;;;;6.68;4.68;;;;;;;;;;5093467;28;20052;-61
2022/08/10 01:23:54;;;;;;;5.72;5.13;;;;;;;;;;5099408;28;20059;-61
2022/08/10 01:26:54;;;;;;;5.72;4.78;;;;;;;;;;5098930;28;20056;-60
2022/08/10 01:29:45;;;;;;;7.53;4.30;;;;;;;;;;5011652;28;20092;-61
2022/08/10 01:32:15;;;;;;;9.00;5.47;;;;;;;;;;5000734;28;20230;-61
2022/08/10 01:34:45;;;;;;;10.20;5.88;;;;;;;;;;5065439;28;20340;-60
2022/08/10 01:37:14;;;;;;;12.02;5.97;;;;;;;;;;5076353;28;20487;-60
2022/08/10 01:39:43;;;;;;;10.50;5.60;;;;;;;;;;5102079;28;20074;-60
2022/08/10 01:42:12;;;;;;;8.77;4.90;;;;;;;;;;5098444;28;20070;-61
2022/08/10 01:44:42;;;;;;;7.47;4.50;;;;;;;;;;5096205;28;20498;-60
2022/08/10 01:49:59;;;;;;;8.32;4.63;;;;;;;;;;5095580;28;20050;-61
2022/08/10 01:52:27;;;;;;;6.07;4.82;;;;;;;;;;5101821;28;20047;-61
2022/08/10 01:54:55;;;;;;;8.80;5.25;;;;;;;;;;5097300;28;20043;-61
2022/08/10 01:57:23;;;;;;;5.38;4.72;;;;;;;;;;5092661;28;20874;-60
2022/08/10 01:59:51;;;;;;;6.55;4.70;;;;;;;;;;5096014;28;20592;-60
2022/08/10 02:02:19;;;;;;;8.77;5.70;;;;;;;;;;5093072;28;20056;-61
2022/08/10 02:04:47;;;;;;;8.25;6.25;;;;;;;;;;5091657;28;20055;-60
2022/08/10 02:07:17;;;;;;;6.85;4.70;;;;;;;;;;5093653;28;20051;-61
2022/08/10 02:09:47;;;;;;;5.10;4.60;;;;;;;;;;5098751;28;20125;-60
2022/08/10 02:12:16;;;;;;;6.70;4.80;;;;;;;;;;5100710;28;20054;-61
2022/08/10 02:14:44;;;;;;;7.15;5.60;;;;;;;;;;5093793;28;20105;-60
2022/08/10 02:17:12;;;;;;;9.50;4.95;;;;;;;;;;5094540;28;20530;-60
2022/08/10 02:19:40;;;;;;;9.98;5.55;;;;;;;;;;5097936;28;20056;-61
2022/08/10 02:22:09;;;;;;;7.88;5.20;;;;;;;;;;5092875;28;20624;-60
2022/08/10 02:24:40;;;;;;;6.80;5.30;;;;;;;;;;5096781;28;20085;-60
2022/08/10 02:27:08;;;;;;;6.97;4.75;;;;;;;;;;5097016;28;20085;-60
2022/08/10 02:29:37;;;;;;;5.25;3.83;;;;;;;;;;5098536;28;20063;-61
2022/08/10 02:32:05;;;;;;;6.85;4.20;;;;;;;;;;5099349;28;20055;-61
2022/08/10 02:34:34;;;;;;;6.78;4.28;;;;;;;;;;5095193;28;20043;-61
2022/08/10 02:37:01;;;;;;;13.25;4.53;;;;;;;;;;5094086;28;20052;-60
2022/08/10 02:39:29;;;;;;;7.20;4.65;;;;;;;;;;5102557;28;20051;-60
2022/08/10 02:41:59;;;;;;;8.32;4.30;;;;;;;;;;5093274;28;20126;-60
2022/08/10 02:44:29;;;;;;;7.70;5.13;;;;;;;;;;5092959;28;20047;-60
2022/08/10 02:46:59;;;;;;;5.07;4.15;;;;;;;;;;5075375;28;20074;-61
2022/08/10 02:49:29;;;;;;;9.32;5.38;;;;;;;;;;5091874;28;20048;-60
2022/08/10 02:51:58;;;;;;;5.55;4.28;;;;;;;;;;5080340;28;20055;-60
2022/08/10 02:54:29;;;;;;;4.75;3.42;;;;;;;;;;5091518;28;20624;-61
2022/08/10 02:57:00;;;;;;;8.77;3.65;;;;;;;;;;5093532;28;20505;-60
2022/08/10 02:59:30;;;;;;;6.38;3.00;;;;;;;;;;5093531;28;20089;-60
2022/08/10 03:01:58;;;;;;;5.65;3.15;;;;;;;;;;5095678;28;20390;-61
2022/08/10 03:04:30;;;;;;;7.63;3.53;;;;;;;;;;5092336;28;20036;-60
2022/08/10 03:07:00;;;;;;;8.80;4.40;;;;;;;;;;5100099;28;20150;-61
2022/08/10 03:09:29;;;;;;;8.90;3.63;;;;;;;;;;5094575;28;20054;-60
2022/08/10 03:11:59;;;;;;;9.93;4.45;;;;;;;;;;5092085;28;20076;-60
2022/08/10 03:14:26;;;;;;;7.13;4.20;;;;;;;;;;5091934;28;20069;-60
2022/08/10 03:16:54;;;;;;;5.82;3.33;;;;;;;;;;5096840;28;20055;-62
2022/08/10 03:19:22;;;;;;;7.93;3.92;;;;;;;;;;5076450;28;20100;-61
2022/08/10 03:21:49;;;;;;;6.53;4.10;;;;;;;;;;5096845;28;20052;-60
2022/08/10 03:24:21;;;;;;;5.00;3.67;;;;;;;;;;5091291;28;20127;-60
2022/08/10 03:26:49;;;;;;;10.15;4.28;;;;;;;;;;5094521;28;20162;-61
2022/08/10 03:29:18;;;;;;;13.15;5.40;;;;;;;;;;5091013;28;20050;-61
2022/08/10 03:31:46;;;;;;;9.88;4.90;;;;;;;;;;5091452;28;20079;-61
2022/08/10 03:34:14;;;;;;;11.60;5.85;;;;;;;;;;5102662;28;20044;-61
2022/08/10 03:36:42;;;;;;;15.05;6.57;;;;;;;;;;5080968;28;20048;-60
2022/08/10 03:39:09;;;;;;;11.02;6.85;;;;;;;;;;5093274;28;20059;-60
2022/08/10 03:41:39;;;;;;;11.13;7.20;;;;;;;;;;5094926;28;20056;-61
2022/08/10 03:44:07;;;;;;;19.58;9.95;;;;;;;;;;5092708;28;20054;-59
2022/08/10 03:46:37;;;;;;;18.85;9.43;;;;;;;;;;5095884;28;20051;-60
2022/08/10 03:49:05;;;;;;;12.45;8.32;;;;;;;;;;5097026;28;20586;-60
2022/08/10 03:51:33;;;;;;;18.75;9.88;;;;;;;;;;5093496;28;20048;-61
2022/08/10 03:54:02;;;;;;;16.48;8.90;;;;;;;;;;5091560;28;20103;-61
2022/08/10 03:56:30;;;;;;;13.68;8.13;;;;;;;;;;5091935;28;20059;-61
2022/08/10 03:58:57;;;;;;;14.68;8.45;;;;;;;;;;5093732;28;20039;-60
2022/08/10 04:01:25;;;;;;;8.70;6.85;;;;;;;;;;5093486;28;20070;-61
2022/08/10 04:03:53;;;;;;;20.10;7.55;;;;;;;;;;5092650;28;20052;-60
2022/08/10 04:06:21;;;;;;;10.93;7.30;;;;;;;;;;5094633;28;20433;-61
2022/08/10 04:08:48;;;;;;;10.50;7.18;;;;;;;;;;5095564;28;20043;-61
2022/08/10 04:11:15;;;;;;;13.20;8.05;;;;;;;;;;5095534;28;20048;-60
2022/08/10 04:13:42;;;;;;;12.77;8.18;;;;;;;;;;5096216;28;20111;-60
2022/08/10 04:16:09;;;;;;;12.95;8.18;;;;;;;;;;5090233;28;20051;-62
2022/08/10 04:18:37;;;;;;;8.77;7.22;;;;;;;;;;5094118;28;20105;-60
2022/08/10 04:21:09;;;;;;;10.10;7.38;;;;;;;;;;5078631;28;20525;-61
2022/08/10 04:23:38;;;;;;;11.02;7.50;;;;;;;;;;5096104;28;20548;-60
2022/08/10 04:26:06;;;;;;;9.38;6.47;;;;;;;;;;5073681;28;20056;-60
2022/08/10 04:28:33;;;;;;;10.98;7.45;;;;;;;;;;5090403;28;20578;-61
2022/08/10 04:31:01;;;;;;;11.85;6.55;;;;;;;;;;5094265;28;20055;-61
2022/08/10 04:33:29;;;;;;;14.27;7.43;;;;;;;;;;5094758;28;20052;-60
2022/08/10 04:35:57;;;;;;;9.88;6.78;;;;;;;;;;5097420;28;20522;-60
2022/08/10 04:38:27;;;;;;;11.23;7.00;;;;;;;;;;5089742;28;20097;-61
2022/08/10 04:40:54;;;;;;;7.70;6.35;;;;;;;;;;5094660;28;20490;-61
2022/08/10 04:43:21;;;;;;;10.90;6.28;;;;;;;;;;5095603;28;20505;-61
2022/08/10 04:45:49;;;;;;;7.57;5.68;;;;;;;;;;5095121;28;20043;-61
2022/08/10 04:48:16;;;;;;;8.60;4.30;;;;;;;;;;5093241;28;20122;-60
2022/08/10 04:50:43;;;;;;;9.77;5.25;;;;;;;;;;5099152;28;20684;-60
2022/08/10 04:53:10;;;;;;;8.35;5.07;;;;;;;;;;5089946;28;20052;-60
2022/08/10 04:55:39;;;;;;;7.53;5.13;;;;;;;;;;5089176;28;20039;-61
2022/08/10 04:58:06;;;;;;;6.70;4.60;;;;;;;;;;5089161;28;20055;-61
2022/08/10 05:00:33;;;;;;;7.50;5.10;;;;;;;;;;5099351;28;20137;-61
2022/08/10 05:03:00;;;;;;;9.23;5.50;;;;;;;;;;5078504;28;20116;-61
2022/08/10 05:05:28;;;;;;;10.23;5.63;;;;;;;;;;5099309;28;20067;-61
2022/08/10 05:07:55;;;;;;;6.82;5.40;;;;;;;;;;5078083;28;20048;-61
2022/08/10 05:10:22;;;;;;;8.90;5.40;;;;;;;;;;5105041;27;20387;-62
2022/08/10 05:12:51;;;;;;;5.97;4.90;;;;;;;;;;5106756;28;20057;-61
2022/08/10 05:15:18;;;;;;;6.32;5.15;;;;;;;;;;5108307;28;20044;-61
2022/08/10 05:17:47;;;;;;;12.05;7.32;;;;;;;;;;5104851;28;20039;-61
2022/08/10 05:20:14;;;;;;;14.70;8.80;;;;;;;;;;5100728;28;20056;-61
2022/08/10 05:22:42;;;;;;;12.50;7.93;;;;;;;;;;5101961;28;20048;-60
2022/08/10 05:25:10;;;;;;;11.60;8.70;;;;;;;;;;5101870;28;20054;-61
2022/08/10 05:27:38;;;;;;;14.02;8.10;;;;;;;;;;5085531;28;20047;-61
2022/08/10 05:30:07;;;;;;;15.07;10.00;;;;;;;;;;5102499;28;20530;-60
2022/08/10 05:32:36;;;;;;;12.75;9.60;;;;;;;;;;5102256;28;20052;-60
2022/08/10 05:35:04;;;;;;;16.67;10.90;;;;;;;;;;5081213;28;20100;-60
2022/08/10 05:37:32;;;;;;;18.73;11.70;;;;;;;;;;5101393;28;20479;-61
2022/08/10 05:39:59;;;;;;;14.43;10.20;;;;;;;;;;5079775;28;20449;-61
2022/08/10 05:42:27;;;;;;;14.07;10.50;;;;;;;;;;5080958;28;20161;-60
2022/08/10 05:44:55;;;;;;;22.08;12.88;;;;;;;;;;5098419;28;20051;-60
2022/08/10 05:47:23;;;;;;;20.80;13.88;;;;;;;;;;5099705;28;20047;-62
2022/08/10 05:49:51;;;;;;;17.73;12.68;;;;;;;;;;5101583;28;20055;-60
2022/08/10 05:52:19;;;;;;;19.52;12.70;;;;;;;;;;5093633;28;20051;-61
2022/08/10 05:54:46;;;;;;;20.38;14.13;;;;;;;;;;5094702;28;20047;-61
2022/08/10 05:57:15;;;;;;;19.90;12.95;;;;;;;;;;5080512;28;20048;-61
2022/08/10 05:59:46;;;;;;;19.55;12.50;;;;;;;;;;5098534;28;20051;-60
2022/08/10 06:02:15;;;;;;;19.55;13.98;;;;;;;;;;5093523;28;20059;-61
2022/08/10 06:04:44;;;;;;;20.10;13.18;;;;;;;;;;5096753;28;20052;-61
2022/08/10 06:07:14;;;;;;;15.30;10.93;;;;;;;;;;5093544;28;20055;-61
2022/08/10 06:09:42;;;;;;;18.50;11.88;;;;;;;;;;5097393;27;20105;-60
2022/08/10 06:12:10;;;;;;;19.42;11.82;;;;;;;;;;5098832;28;20414;-61
2022/08/10 06:17:23;;;;;;;17.10;10.38;;;;;;;;;;5098276;28;20059;-61
2022/08/10 06:19:52;;;;;;;16.40;10.13;;;;;;;;;;5096189;28;20052;-61
2022/08/10 06:22:20;;;;;;;12.45;8.38;;;;;;;;;;5095544;28;20055;-61
2022/08/10 06:24:47;;;;;;;13.77;9.25;;;;;;;;;;5097198;28;20577;-61
2022/08/10 06:27:15;;;;;;;13.68;8.88;;;;;;;;;;5093661;28;20052;-62
2022/08/10 06:29:44;;;;;;;12.18;8.43;;;;;;;;;;5099569;28;20054;-61
2022/08/10 06:32:13;;;;;;;12.75;8.35;;;;;;;;;;5093211;28;20044;-61
2022/08/10 06:34:42;;;;;;;10.65;7.18;;;;;;;;;;5099057;28;20052;-61
2022/08/10 06:37:13;;;;;;;11.68;7.43;;;;;;;;;;5080673;28;20142;-61
2022/08/10 06:39:40;;;;;;;11.25;7.53;;;;;;;;;;5101489;28;20050;-62
2022/08/10 06:42:10;;;;;;;12.73;7.40;;;;;;;;;;5094248;28;20079;-62
2022/08/10 06:44:40;;;;;;;10.52;6.55;;;;;;;;;;5076107;28;20441;-61
2022/08/10 06:47:09;;;;;;;8.70;6.22;;;;;;;;;;5077632;28;20048;-61
2022/08/10 06:49:38;;;;;;;9.50;5.90;;;;;;;;;;5096075;28;20048;-61
2022/08/10 06:52:06;;;;;;;10.07;5.78;;;;;;;;;;5100396;28;20059;-61
2022/08/10 06:54:35;;;;;;;9.07;5.00;;;;;;;;;;5100351;28;20079;-62
2022/08/10 06:57:03;;;;;;;11.32;4.97;;;;;;;;;;5096020;28;20055;-61
2022/08/10 06:59:33;;;;;;;7.82;4.28;;;;;;;;;;5094569;28;20060;-61
2022/08/10 07:02:02;;;;;;;10.10;3.83;;;;;;;;;;5097211;28;20172;-61
2022/08/10 07:04:31;;;;;;;7.45;3.90;;;;;;;;;;5092162;28;20674;-61
2022/08/10 07:06:59;;;;;;;9.95;3.65;;;;;;;;;;5097341;28;20785;-61
2022/08/10 07:09:27;;;;;;;10.18;3.65;;;;;;;;;;5085444;28;20053;-61
2022/08/10 07:11:56;;;;;;;7.28;3.40;;;;;;;;;;5103064;28;20059;-61
2022/08/10 07:14:23;;;;;;;5.00;3.13;;;;;;;;;;5101540;28;20139;-61
2022/08/10 07:16:51;;;;;;;5.95;3.30;;;;;;;;;;5078392;28;20517;-61
2022/08/10 07:19:19;;;;;;;7.75;2.95;;;;;;;;;;5092713;28;20052;-61
2022/08/10 07:21:46;;;;;;;7.30;3.58;;;;;;;;;;5098850;28;20077;-61
2022/08/10 07:24:15;;;;;;;5.63;3.10;;;;;;;;;;5098405;28;20055;-61
2022/08/10 07:26:45;;;;;;;6.60;2.75;;;;;;;;;;5096467;28;20040;-62
2022/08/10 07:29:14;;;;;;;5.38;2.80;;;;;;;;;;5076212;28;20044;-61
2022/08/10 07:31:42;;;;;;;3.80;2.47;;;;;;;;;;5104437;28;20864;-61
2022/08/10 07:34:10;;;;;;;5.85;2.80;;;;;;;;;;5103654;28;20051;-61
2022/08/10 07:36:39;;;;;;;7.47;2.65;;;;;;;;;;5104529;28;20459;-61
2022/08/10 07:39:08;;;;;;;5.10;2.33;;;;;;;;;;5100741;28;20091;-61
2022/08/10 07:41:35;;;;;;;9.15;2.70;;;;;;;;;;5104240;28;20169;-62
2022/08/10 07:44:04;;;;;;;8.52;2.50;;;;;;;;;;5105733;28;20050;-61
2022/08/10 07:46:34;;;;;;;5.10;2.55;;;;;;;;;;5101077;28;20740;-61
2022/08/10 07:49:03;;;;;;;6.50;2.60;;;;;;;;;;5102140;28;20055;-61
2022/08/10 07:51:32;;;;;;;6.25;2.80;;;;;;;;;;5097002;28;20449;-62
2022/08/10 07:54:01;;;;;;;4.82;2.50;;;;;;;;;;5095767;28;20551;-60
2022/08/10 07:56:30;;;;;;;7.05;2.75;;;;;;;;;;5083541;28;20396;-60
2022/08/10 07:58:59;;;;;;;9.10;2.47;;;;;;;;;;5086467;28;20491;-61
2022/08/10 08:01:30;;;;;;;8.55;2.85;;;;;;;;;;5103676;28;20062;-61
2022/08/10 08:03:59;;;;;;;7.03;2.50;;;;;;;;;;5100817;28;20074;-61
2022/08/10 08:06:27;;;;;;;6.57;2.22;;;;;;;;;;5103153;28;20052;-61
2022/08/10 08:08:55;;;;;;;10.23;2.05;;;;;;;;;;5100587;28;20051;-61
2022/08/10 08:11:22;;;;;;;4.80;2.00;;;;;;;;;;5100789;28;20077;-62
2022/08/10 08:13:50;;;;;;;10.48;2.75;;;;;;;;;;5105362;28;20043;-62
2022/08/10 08:16:17;;;;;;;5.68;2.10;;;;;;;;;;5101559;28;20074;-61
2022/08/10 08:18:45;;;;;;;4.47;1.85;;;;;;;;;;5102873;28;20414;-61
2022/08/10 08:21:13;;;;;;;4.05;2.00;;;;;;;;;;5102443;28;20063;-61
2022/08/10 08:23:42;;;;;;;7.25;2.30;;;;;;;;;;5101642;28;20051;-61
2022/08/10 08:26:10;;;;;;;6.13;2.47;;;;;;;;;;5102153;28;20052;-61
2022/08/10 08:28:37;;;;;;;5.35;2.10;;;;;;;;;;5096508;28;20054;-62
2022/08/10 08:31:05;;;;;;;9.25;1.80;;;;;;;;;;5084566;28;20048;-61
2022/08/10 08:33:33;;;;;;;5.20;2.10;;;;;;;;;;5104865;28;20052;-61
2022/08/10 08:36:01;;;;;;;8.65;2.78;;;;;;;;;;5105271;28;20662;-61
2022/08/10 08:38:30;;;;;;;8.50;2.20;;;;;;;;;;5106227;28;20048;-60
2022/08/10 08:41:01;;;;;;;5.32;2.20;;;;;;;;;;5108004;28;20104;-61
2022/08/10 08:43:43;;;;;;;4.68;2.53;;;;;;;;;;5106308;28;20048;-60
2022/08/10 08:46:19;;;;;;;5.28;2.25;;;;;;;;;;5106612;28;20048;-62
2022/08/10 08:48:53;;;;;;;5.65;2.47;;;;;;;;;;5103895;28;20118;-61
2022/08/10 08:51:26;;;;;;;6.22;2.53;;;;;;;;;;5107176;28;20051;-61
2022/08/10 08:54:03;;;;;;;8.23;2.47;;;;;;;;;;5106162;28;20055;-61
2022/08/10 08:56:34;;;;;;;7.65;2.28;;;;;;;;;;5098431;28;20154;-61
2022/08/10 08:59:08;;;;;;;4.13;2.10;;;;;;;;;;5103421;28;20043;-61
2022/08/10 09:01:42;;;;;;;6.13;2.20;;;;;;;;;;5103276;27;20047;-61
2022/08/10 09:04:16;;;;;;;5.32;2.40;;;;;;;;;;5107479;28;20517;-61
2022/08/10 09:07:02;;;;;;;8.52;2.13;;;;;;;;;;5102953;28;20522;-61
2022/08/10 09:09:46;;;;;;;7.50;2.05;;;;;;;;;;5106784;28;20502;-61
2022/08/10 09:12:20;;;;;;;6.15;2.20;;;;;;;;;;5104290;28;20055;-62
2022/08/10 09:14:50;;;;;;;6.25;2.10;;;;;;;;;;5108648;28;20524;-61
2022/08/10 09:17:20;;;;;;;4.82;2.22;;;;;;;;;;5101883;28;20043;-61
2022/08/10 09:19:50;;;;;;;4.53;2.40;;;;;;;;;;5108262;28;20396;-61
2022/08/10 09:22:22;;;;;;;6.18;1.95;;;;;;;;;;5106223;28;20048;-61
2022/08/10 09:24:54;;;;;;;7.88;2.17;;;;;;;;;;5105530;28;20092;-62
2022/08/10 09:27:23;;;;;;;6.03;1.88;;;;;;;;;;5101967;28;20051;-61
2022/08/10 09:29:54;;;;;;;5.70;2.00;;;;;;;;;;5098909;28;20067;-61
2022/08/10 09:32:26;;;;;;;5.43;1.80;;;;;;;;;;5103838;28;20052;-61
2022/08/10 09:34:58;;;;;;;4.60;1.80;;;;;;;;;;5100365;28;20444;-61
2022/08/10 09:37:29;;;;;;;5.88;1.75;;;;;;;;;;5106056;28;20039;-62
2022/08/10 09:39:59;;;;;;;4.63;1.90;;;;;;;;;;5108434;28;20196;-61
2022/08/10 09:42:33;;;;;;;4.18;1.80;;;;;;;;;;5082481;28;20090;-61
2022/08/10 09:45:02;;;;;;;7.40;1.85;;;;;;;;;;5099438;28;20063;-62
2022/08/10 09:47:35;;;;;;;4.68;1.90;;;;;;;;;;5085989;28;20051;-61
2022/08/10 09:50:07;;;;;;;8.93;2.13;;;;;;;;;;5101779;28;20541;-62
2022/08/10 09:52:37;;;;;;;5.22;2.40;;;;;;;;;;5106182;28;20099;-61
2022/08/10 09:55:11;;;;;;;6.20;1.90;;;;;;;;;;5106082;28;20062;-61
2022/08/10 09:57:42;;;;;;;7.82;2.20;;;;;;;;;;5106644;28;20051;-61
2022/08/10 10:00:11;;;;;;;5.13;2.08;;;;;;;;;;5103897;28;20047;-61
2022/08/10 10:02:42;;;;;;;7.22;2.30;;;;;;;;;;5105296;28;20118;-62
2022/08/10 10:05:15;;;;;;;4.80;2.85;;;;;;;;;;5106089;28;20057;-61
2022/08/10 10:07:42;;;;;;;;;;;;;;;;;;5106005;28;20063;-61
2022/08/10 10:10:12;;;;;;;4.85;2.20;;;;;;;;;;5105267;27;20287;-62
2022/08/10 10:12:43;;;;;;;6.82;2.60;;;;;;;;;;5105924;28;20043;-61
2022/08/10 10:15:22;;;;;;;6.07;2.78;;;;;;;;;;5103411;28;20055;-61
2022/08/10 10:17:58;;;;;;;6.88;2.50;;;;;;;;;;5103949;28;20048;-61
2022/08/10 10:20:28;;;;;;;6.75;2.95;;;;;;;;;;5108135;28;20055;-61
2022/08/10 10:22:59;;;;;;;6.85;2.70;;;;;;;;;;5105069;28;20093;-62
2022/08/10 10:25:33;;;;;;;4.53;2.70;;;;;;;;;;5101658;28;20059;-61
2022/08/10 10:28:10;;;;;;;7.18;3.00;;;;;;;;;;5077784;28;20109;-61
2022/08/10 10:30:41;;;;;;;5.60;2.42;;;;;;;;;;5105972;28;20048;-61
2022/08/10 10:33:10;;;;;;;4.55;2.30;;;;;;;;;;5104315;28;20141;-61
2022/08/10 10:35:39;;;;;;;8.57;2.60;;;;;;;;;;5107454;28;20081;-62
2022/08/10 10:38:08;;;;;;;6.60;3.13;;;;;;;;;;5105943;28;20075;-61
2022/08/10 10:40:40;;;;;;;6.53;3.10;;;;;;;;;;5082118;28;20051;-61
2022/08/10 10:43:11;;;;;;;5.55;2.60;;;;;;;;;;5103756;28;20136;-61
2022/08/10 10:45:44;;;;;;;4.07;2.50;;;;;;;;;;5107296;28;20047;-61
2022/08/10 10:48:16;;;;;;;6.80;2.78;;;;;;;;;;5102339;28;20051;-61
2022/08/10 10:50:50;;;;;;;4.32;2.25;;;;;;;;;;5104354;28;20138;-62
2022/08/10 10:53:22;;;;;;;10.30;2.70;;;;;;;;;;5105714;28;20989;-62
2022/08/10 10:55:53;;;;;;;5.03;3.13;;;;;;;;;;5084228;28;20097;-61
2022/08/10 10:58:25;;;;;;;4.45;2.45;;;;;;;;;;5075991;28;20083;-61
2022/08/10 11:00:57;;;;;;;6.05;2.78;;;;;;;;;;5089223;28;20051;-62
2022/08/10 11:03:34;;;;;;;6.75;3.05;;;;;;;;;;5101349;28;20104;-61
2022/08/10 11:06:07;;;;;;;5.32;2.53;;;;;;;;;;5104499;28;20051;-62
2022/08/10 11:08:37;;;;;;;8.27;2.95;;;;;;;;;;5103044;28;20598;-61
2022/08/10 11:11:07;;;;;;;4.95;2.42;;;;;;;;;;5104963;28;20052;-62
2022/08/10 11:13:37;;;;;;;11.88;2.88;;;;;;;;;;5105725;28;20551;-61
2022/08/10 11:16:07;;;;;;;6.03;2.97;;;;;;;;;;5081997;28;20052;-62
2022/08/10 11:18:39;;;;;;;5.75;3.15;;;;;;;;;;5101923;28;20105;-62
2022/08/10 11:21:06;;;;;;;;;;;;;;;;;;5077838;28;20055;-61
2022/08/10 11:23:37;;;;;;;12.15;2.97;;;;;;;;;;5101641;28;20600;-62
2022/08/10 11:26:11;;;;;;;5.15;2.22;;;;;;;;;;5082329;28;20056;-62
2022/08/10 11:28:41;;;;;;;8.07;2.80;;;;;;;;;;5096897;28;20052;-62
2022/08/10 11:31:12;;;;;;;8.02;2.67;;;;;;;;;;5106485;28;20129;-62
2022/08/10 11:33:43;;;;;;;6.80;3.15;;;;;;;;;;5098667;28;20105;-62
2022/08/10 11:36:17;;;;;;;5.40;2.88;;;;;;;;;;5098894;28;20055;-62
2022/08/10 11:38:50;;;;;;;5.78;2.33;;;;;;;;;;5100341;28;20547;-62
2022/08/10 11:41:28;;;;;;;4.28;2.50;;;;;;;;;;5102035;28;20039;-62
2022/08/10 11:44:03;;;;;;;6.60;2.55;;;;;;;;;;5104655;28;20925;-62
2022/08/10 11:46:34;;;;;;;6.45;3.08;;;;;;;;;;5104920;28;20075;-63
2022/08/10 11:49:04;;;;;;;8.93;2.80;;;;;;;;;;5101147;28;20673;-63
2022/08/10 11:51:36;;;;;;;7.00;2.47;;;;;;;;;;5096703;28;20198;-62
2022/08/10 11:54:05;;;;;;;6.55;2.60;;;;;;;;;;5103420;28;20498;-62
2022/08/10 11:56:39;;;;;;;8.48;3.20;;;;;;;;;;5101183;28;20040;-62
2022/08/10 12:01:53;;;;;;;6.60;3.03;;;;;;;;;;5101765;28;20129;-62
2022/08/10 12:04:20;;;;;;;5.35;2.50;;;;;;;;;;5098547;28;20054;-62
2022/08/10 12:06:49;;;;;;;7.72;2.70;;;;;;;;;;5101231;28;20047;-62
2022/08/10 12:09:18;;;;;;;4.82;2.42;;;;;;;;;;5078697;28;20139;-62
2022/08/10 12:11:47;;;;;;;4.40;2.67;;;;;;;;;;5093127;28;20043;-62
2022/08/10 12:14:16;;;;;;;9.25;3.00;;;;;;;;;;5093883;28;20051;-62
2022/08/10 12:16:47;;;;;;;7.45;2.60;;;;;;;;;;5104761;28;20043;-63
2022/08/10 12:19:19;;;;;;;7.80;2.78;;;;;;;;;;5100386;28;20097;-62
2022/08/10 12:21:47;;;;;;;5.82;2.83;;;;;;;;;;5098648;28;20071;-62
2022/08/10 12:24:20;;;;;;;3.72;2.15;;;;;;;;;;5104164;28;20058;-62
2022/08/10 12:26:54;;;;;;;5.53;2.45;;;;;;;;;;5096979;28;20055;-62
2022/08/10 12:29:24;;;;;;;5.40;2.55;;;;;;;;;;5101987;28;20642;-62
2022/08/10 12:31:54;;;;;;;4.57;2.50;;;;;;;;;;5095822;28;20055;-62
2022/08/10 12:34:25;;;;;;;6.50;2.30;;;;;;;;;;5100165;28;20047;-63
2022/08/10 12:36:58;;;;;;;4.07;2.27;;;;;;;;;;5102136;28;20124;-63
2022/08/10 12:39:27;;;;;;;7.25;2.20;;;;;;;;;;5096106;28;20055;-63
2022/08/10 12:42:00;;;;;;;6.25;2.03;;;;;;;;;;5092668;28;20261;-62
2022/08/10 12:44:30;;;;;;;4.32;2.30;;;;;;;;;;5098980;28;20433;-62
2022/08/10 12:47:00;;;;;;;5.50;2.53;;;;;;;;;;5101356;28;20051;-64
2022/08/10 12:49:31;;;;;;;4.60;2.45;;;;;;;;;;5099597;28;20690;-62
2022/08/10 12:52:00;;;;;;;6.32;2.40;;;;;;;;;;5104475;28;20047;-63
2022/08/10 12:54:28;;;;;;;4.72;2.33;;;;;;;;;;5103088;28;20055;-62
2022/08/10 12:57:00;;;;;;;6.10;2.53;;;;;;;;;;5099928;28;20056;-63
2022/08/10 12:59:28;;;;;;;4.88;2.35;;;;;;;;;;5099724;28;20051;-63
2022/08/10 13:01:57;;;;;;;5.95;2.80;;;;;;;;;;5102520;28;20061;-63
2022/08/10 13:04:30;;;;;;;7.53;2.80;;;;;;;;;;5097222;28;20058;-63
2022/08/10 13:06:59;;;;;;;5.03;2.50;;;;;;;;;;5105072;28;20116;-63
2022/08/10 13:09:27;;;;;;;5.10;2.85;;;;;;;;;;5103780;28;20533;-62
2022/08/10 13:11:56;;;;;;;6.75;2.30;;;;;;;;;;5097771;28;20446;-63
2022/08/10 13:14:29;;;;;;;4.53;2.50;;;;;;;;;;5098943;28;20073;-63
2022/08/10 13:16:58;;;;;;;6.30;2.47;;;;;;;;;;5100532;28;20081;-63
2022/08/10 13:19:27;;;;;;;8.95;2.60;;;;;;;;;;5094299;28;20055;-62
2022/08/10 13:21:55;;;;;;;6.63;2.60;;;;;;;;;;5108156;28;20059;-62
2022/08/10 13:24:25;;;;;;;7.80;2.78;;;;;;;;;;5104321;28;20048;-62
2022/08/10 13:26:54;;;;;;;6.10;2.60;;;;;;;;;;5104387;28;20100;-63
2022/08/10 13:29:22;;;;;;;7.47;3.08;;;;;;;;;;5099815;28;20691;-63
2022/08/10 13:31:53;;;;;;;7.53;3.00;;;;;;;;;;5108439;28;20051;-62
2022/08/10 13:34:22;;;;;;;5.90;2.73;;;;;;;;;;5104784;28;20105;-63
2022/08/10 13:36:50;;;;;;;4.38;2.63;;;;;;;;;;5083988;28;20063;-63
2022/08/10 13:39:19;;;;;;;6.38;2.67;;;;;;;;;;5101550;28;20051;-62
2022/08/10 13:41:47;;;;;;;5.53;2.83;;;;;;;;;;5095797;28;20054;-63
2022/08/10 18:40:33;;;;;;;4.63;2.10;;;;;;;;;;5093659;28;20136;-61
2022/08/10 18:43:01;;;;;;;5.32;2.80;;;;;;;;;;5102423;28;20733;-62
2022/08/10 18:45:33;;;;;;;6.47;2.63;;;;;;;;;;5099591;28;20085;-61
2022/08/10 18:48:02;;;;;;;4.47;2.10;;;;;;;;;;5106011;28;20059;-61
2022/08/10 18:50:30;;;;;;;4.60;2.40;;;;;;;;;;5102153;28;20040;-61
2022/08/10 18:53:00;;;;;;;7.63;2.22;;;;;;;;;;5105994;28;20398;-61
2022/08/10 18:55:29;;;;;;;5.82;2.30;;;;;;;;;;5101650;28;20127;-62
2022/08/10 18:58:15;;;;;;;9.60;2.33;;;;;;;;;;5098565;28;20081;-62
2022/08/10 19:00:57;;;;;;;8.02;2.30;;;;;;;;;;5085247;28;20056;-61
2022/08/10 19:03:39;;;;;;;5.63;2.28;;;;;;;;;;5104137;28;20060;-61
2022/08/10 19:06:12;;;;;;;3.80;2.17;;;;;;;;;;5096111;28;20062;-62
2022/08/10 19:08:47;;;;;;;6.60;2.35;;;;;;;;;;5100835;28;20051;-61
2022/08/10 19:11:18;;;;;;;7.90;2.55;;;;;;;;;;5085989;28;20159;-61
2022/08/10 19:13:49;;;;;;;5.63;2.50;;;;;;;;;;5097750;28;20130;-61
2022/08/10 19:16:22;;;;;;;9.10;2.40;;;;;;;;;;5103675;28;20055;-61
2022/08/10 19:18:55;;;;;;;8.27;2.50;;;;;;;;;;5102052;28;20108;-61
2022/08/10 19:21:28;;;;;;;8.43;2.60;;;;;;;;;;5106097;28;20047;-62
2022/08/10 19:24:00;;;;;;;7.55;2.63;;;;;;;;;;5099977;28;20162;-61
2022/08/10 19:26:35;;;;;;;6.50;2.80;;;;;;;;;;5101693;28;20044;-61
2022/08/10 19:29:08;;;;;;;7.00;2.90;;;;;;;;;;5098551;28;20063;-60
2022/08/10 19:31:35;;;;;;;;;;;;;;;;;;5094543;28;20521;-61
2022/08/10 19:34:07;;;;;;;6.63;2.80;;;;;;;;;;5100751;28;19924;-61
2022/08/10 19:36:38;;;;;;;5.10;2.72;;;;;;;;;;5093150;28;20142;-61
2022/08/10 19:39:11;;;;;;;9.18;2.70;;;;;;;;;;5096516;28;20048;-61
2022/08/10 19:41:38;;;;;;;;;;;;;;;;;;5093554;28;20101;-61
2022/08/10 19:44:10;;;;;;;8.15;3.42;;;;;;;;;;5104670;28;19931;-60
2022/08/10 19:46:39;;;;;;;8.85;3.15;;;;;;;;;;5095777;28;20670;-61
2022/08/10 19:49:13;;;;;;;9.38;3.00;;;;;;;;;;5083870;28;20781;-61
2022/08/10 19:51:45;;;;;;;9.80;3.00;;;;;;;;;;5092979;28;20525;-60
2022/08/10 19:54:16;;;;;;;8.38;3.00;;;;;;;;;;5080525;28;20134;-61
2022/08/10 19:56:49;;;;;;;4.00;2.80;;;;;;;;;;5101314;28;20099;-61
2022/08/10 19:59:22;;;;;;;8.98;3.15;;;;;;;;;;5098441;28;20047;-61
2022/08/10 20:01:52;;;;;;;8.77;2.95;;;;;;;;;;5102629;28;20105;-61